Time;durP1;ratioP1;P1;durP2;ratioP2;P2;SDS_P1;SDS_P2;PMS_P1;PMS_P2;Temp;Humidity;BMP_temperature;BMP_pressure;BME280_temperature;BME280_humidity;BME280_pressure;Samples;Min_cycle;Max_cycle;Signal;HPM_P1;HPM_P2
2023/08/06 00:02:02;;;;;;;;;;;;;;;15.14;100.00;100391.16;5010277;28;19975;-78
2023/08/06 00:04:28;;;;;;;;;;;;;;;15.17;100.00;100387.28;5002820;28;20388;-78
2023/08/06 00:06:53;;;;;;;;;;;;;;;15.14;100.00;100388.47;5021610;28;19925;-77
2023/08/06 00:09:18;;;;;;;;;;;;;;;15.17;100.00;100396.25;5015846;28;20364;-78
2023/08/06 00:11:43;;;;;;;;;;;;;;;15.21;100.00;100392.22;5020626;28;20493;-78
2023/08/06 00:14:09;;;;;;;;;;;;;;;15.12;100.00;100385.06;5023696;28;19927;-78
2023/08/06 00:16:34;;;;;;;;;;;;;;;15.17;100.00;100384.59;5014027;28;19952;-79
2023/08/06 00:18:59;;;;;;;;;;;;;;;15.09;100.00;100379.97;5003956;28;19987;-78
2023/08/06 00:21:25;;;;;;;;;;;;;;;15.13;100.00;100379.50;5022420;28;20044;-78
2023/08/06 00:23:52;;;;;;;;;;;;;;;15.11;100.00;100376.09;5019913;28;20358;-78
2023/08/06 00:26:17;;;;;;;;;;;;;;;15.12;100.00;100375.09;5025527;28;19921;-78
2023/08/06 00:28:42;;;;;;;;;;;;;;;15.14;100.00;100378.47;5006652;28;19970;-79
2023/08/06 00:31:08;;;;;;;;;;;;;;;15.11;100.00;100378.81;5005854;28;20015;-79
2023/08/06 00:33:33;;;;;;;;;;;;;;;15.14;100.00;100370.38;5012764;28;20207;-79
2023/08/06 00:35:58;;;;;;;;;;;;;;;15.15;100.00;100365.84;5011531;28;19932;-79
2023/08/06 00:38:23;;;;;;;;;;;;;;;15.12;100.00;100368.84;5005566;28;19920;-78
2023/08/06 00:40:48;;;;;;;;;;;;;;;15.09;100.00;100353.81;5031214;28;19925;-78
2023/08/06 00:43:14;;;;;;;;;;;;;;;15.20;100.00;100366.19;5010865;28;20130;-77
2023/08/06 00:45:39;;;;;;;;;;;;;;;15.26;100.00;100370.09;5029020;28;19932;-77
2023/08/06 00:48:04;;;;;;;;;;;;;;;15.27;100.00;100371.81;5010091;28;19927;-78
2023/08/06 00:50:29;;;;;;;;;;;;;;;15.28;100.00;100368.09;5010861;28;19920;-79
2023/08/06 00:52:55;;;;;;;;;;;;;;;15.27;100.00;100360.97;5018153;28;19945;-78
2023/08/06 00:55:20;;;;;;;;;;;;;;;15.29;100.00;100359.81;5024924;28;20838;-79
2023/08/06 00:57:45;;;;;;;;;;;;;;;15.28;100.00;100362.69;5027141;28;19943;-79
2023/08/06 01:00:11;;;;;;;;;;;;;;;15.22;100.00;100358.78;5022568;28;20490;-79
2023/08/06 01:02:36;;;;;;;;;;;;;;;15.22;100.00;100366.88;5025000;28;20830;-78
2023/08/06 01:05:01;;;;;;;;;;;;;;;15.24;100.00;100364.00;5028343;28;20312;-79
2023/08/06 01:07:45;;;;;;;;;;;;;;;15.27;100.00;100363.69;5028993;28;20402;-78
2023/08/06 01:10:15;;;;;;;;;;;;;;;15.19;100.00;100369.91;5022687;28;19932;-78
2023/08/06 01:12:49;;;;;;;;;;;;;;;15.19;100.00;100364.50;5024230;28;20019;-77
2023/08/06 01:15:16;;;;;;;;;;;;;;;15.19;100.00;100369.03;5032897;28;20005;-79
2023/08/06 01:17:42;;;;;;;;;;;;;;;15.23;100.00;100365.00;5014770;28;19987;-79
2023/08/06 01:20:07;;;;;;;;;;;;;;;15.19;100.00;100361.78;5022889;28;19924;-78
2023/08/06 01:22:32;;;;;;;;;;;;;;;15.23;100.00;100359.59;5025187;28;19909;-78
2023/08/06 01:24:57;;;;;;;;;;;;;;;15.25;100.00;100360.28;5020922;28;19932;-78
2023/08/06 01:27:29;;;;;;;;;;;;;;;15.28;100.00;100355.41;5026333;28;19952;-79
2023/08/06 01:29:59;;;;;;;;;;;;;;;15.27;100.00;100360.97;5027467;28;19951;-80
2023/08/06 01:32:24;;;;;;;;;;;;;;;15.27;100.00;100356.41;5017433;28;19921;-79
2023/08/06 01:34:50;;;;;;;;;;;;;;;15.33;100.00;100360.34;5028670;28;19925;-79
2023/08/06 01:37:15;;;;;;;;;;;;;;;15.32;100.00;100360.47;5012862;28;19928;-79
2023/08/06 01:39:42;;;;;;;;;;;;;;;15.31;100.00;100354.25;5019336;28;19971;-79
2023/08/06 01:42:07;;;;;;;;;;;;;;;15.27;100.00;100352.88;5022959;28;20372;-79
2023/08/06 01:44:32;;;;;;;;;;;;;;;15.28;100.00;100352.69;5025975;28;19927;-79
2023/08/06 01:46:58;;;;;;;;;;;;;;;15.29;100.00;100351.69;5011456;28;19928;-78
2023/08/06 01:49:23;;;;;;;;;;;;;;;15.33;100.00;100354.94;5006427;28;19928;-79
2023/08/06 01:51:48;;;;;;;;;;;;;;;15.23;100.00;100338.81;5007254;28;19920;-81
2023/08/06 01:54:13;;;;;;;;;;;;;;;15.31;100.00;100351.53;5029061;28;19963;-80
2023/08/06 01:56:39;;;;;;;;;;;;;;;15.32;100.00;100349.66;5004627;28;19924;-78
2023/08/06 01:59:04;;;;;;;;;;;;;;;15.40;100.00;100349.72;5026919;28;20343;-78
2023/08/06 02:01:29;;;;;;;;;;;;;;;15.41;100.00;100346.81;5014904;28;20007;-79
2023/08/06 02:03:54;;;;;;;;;;;;;;;15.44;100.00;100351.09;5025287;28;19970;-78
2023/08/06 02:06:20;;;;;;;;;;;;;;;15.42;100.00;100353.94;5027005;28;20058;-78
2023/08/06 02:08:45;;;;;;;;;;;;;;;15.41;100.00;100356.81;5024614;28;19928;-79
2023/08/06 02:11:10;;;;;;;;;;;;;;;15.41;100.00;100357.66;5023391;28;20317;-78
2023/08/06 02:13:35;;;;;;;;;;;;;;;15.40;100.00;100353.25;5014856;28;20343;-80
2023/08/06 02:16:00;;;;;;;;;;;;;;;15.42;100.00;100359.34;5026096;28;20325;-78
2023/08/06 02:18:26;;;;;;;;;;;;;;;15.42;100.00;100353.09;5026150;28;20425;-79
2023/08/06 02:20:55;;;;;;;;;;;;;;;15.38;100.00;100352.56;5012928;28;20415;-78
2023/08/06 02:23:20;;;;;;;;;;;;;;;15.37;100.00;100350.03;5023553;28;19924;-78
2023/08/06 02:25:45;;;;;;;;;;;;;;;15.26;100.00;100352.00;5013386;28;20403;-79
2023/08/06 02:28:10;;;;;;;;;;;;;;;15.33;100.00;100341.41;5010963;28;20402;-78
2023/08/06 02:30:36;;;;;;;;;;;;;;;15.36;100.00;100342.94;5027264;28;19944;-78
2023/08/06 02:33:01;;;;;;;;;;;;;;;15.36;100.00;100337.50;5011293;28;20411;-78
2023/08/06 02:35:26;;;;;;;;;;;;;;;15.36;100.00;100343.75;5025587;28;19921;-79
2023/08/06 02:37:51;;;;;;;;;;;;;;;15.34;100.00;100340.41;5010382;28;19958;-78
2023/08/06 02:40:16;;;;;;;;;;;;;;;15.33;100.00;100340.53;5010134;28;20031;-79
2023/08/06 02:42:42;;;;;;;;;;;;;;;15.32;100.00;100342.41;5027619;28;20174;-78
2023/08/06 02:45:07;;;;;;;;;;;;;;;15.30;100.00;100336.31;5025539;28;19917;-79
2023/08/06 02:47:32;;;;;;;;;;;;;;;15.29;100.00;100335.47;5011867;28;19921;-78
2023/08/06 02:49:58;;;;;;;;;;;;;;;15.23;100.00;100336.09;5009394;28;19929;-79
2023/08/06 02:52:23;;;;;;;;;;;;;;;15.25;100.00;100336.78;5008647;28;20014;-79
2023/08/06 02:54:48;;;;;;;;;;;;;;;15.22;100.00;100334.44;5028864;28;19924;-78
2023/08/06 02:57:13;;;;;;;;;;;;;;;15.23;100.00;100338.81;5029448;28;20270;-79
2023/08/06 02:59:38;;;;;;;;;;;;;;;15.26;100.00;100338.47;5033683;28;20047;-78
2023/08/06 03:02:04;;;;;;;;;;;;;;;15.28;100.00;100332.94;5031679;28;19974;-78
2023/08/06 03:04:29;;;;;;;;;;;;;;;15.25;100.00;100342.19;5033913;28;19920;-78
2023/08/06 03:06:54;;;;;;;;;;;;;;;15.20;100.00;100332.88;5030333;28;20361;-78
2023/08/06 03:09:20;;;;;;;;;;;;;;;15.21;100.00;100321.94;5027778;28;19924;-78
2023/08/06 03:11:45;;;;;;;;;;;;;;;15.26;100.00;100337.66;5031284;28;19921;-78
2023/08/06 03:14:10;;;;;;;;;;;;;;;15.22;100.00;100331.72;5029434;28;19966;-78
2023/08/06 03:16:35;;;;;;;;;;;;;;;15.22;100.00;100331.72;5010242;28;20140;-79
2023/08/06 03:19:01;;;;;;;;;;;;;;;15.22;100.00;100322.75;5023659;28;19983;-78
2023/08/06 03:21:26;;;;;;;;;;;;;;;15.22;100.00;100330.88;5025526;28;20261;-78
2023/08/06 03:23:51;;;;;;;;;;;;;;;15.22;100.00;100326.31;5029059;28;19924;-78
2023/08/06 03:26:16;;;;;;;;;;;;;;;15.19;100.00;100325.78;5028522;28;19916;-78
2023/08/06 03:28:41;;;;;;;;;;;;;;;15.17;100.00;100328.66;5029755;28;19964;-78
2023/08/06 03:31:07;;;;;;;;;;;;;;;15.16;100.00;100326.97;5031724;28;19971;-78
2023/08/06 03:33:32;;;;;;;;;;;;;;;15.19;100.00;100331.19;5031666;28;19927;-78
2023/08/06 03:35:57;;;;;;;;;;;;;;;15.17;100.00;100333.22;5014020;28;19925;-78
2023/08/06 03:38:22;;;;;;;;;;;;;;;15.13;100.00;100324.59;5030825;28;19924;-79
2023/08/06 03:40:48;;;;;;;;;;;;;;;15.12;100.00;100328.28;5008243;28;19917;-78
2023/08/06 03:43:13;;;;;;;;;;;;;;;15.18;100.00;100332.19;5025584;28;19924;-78
2023/08/06 03:45:38;;;;;;;;;;;;;;;15.21;100.00;100329.19;5018126;28;19924;-79
2023/08/06 03:48:03;;;;;;;;;;;;;;;15.22;100.00;100331.72;5013147;28;19925;-78
2023/08/06 03:50:29;;;;;;;;;;;;;;;15.24;100.00;100323.44;5011200;28;19928;-78
2023/08/06 03:52:54;;;;;;;;;;;;;;;15.18;100.00;100318.69;5012058;28;20193;-79
2023/08/06 03:55:19;;;;;;;;;;;;;;;15.28;100.00;100333.75;5026158;28;19990;-78
2023/08/06 03:57:44;;;;;;;;;;;;;;;15.28;100.00;100328.34;5026909;28;19999;-79
2023/08/06 04:00:10;;;;;;;;;;;;;;;15.30;100.00;100329.03;5031576;28;19920;-78
2023/08/06 04:02:35;;;;;;;;;;;;;;;15.32;100.00;100334.31;5026728;28;19968;-78
2023/08/06 04:05:00;;;;;;;;;;;;;;;15.33;100.00;100327.03;5009894;28;19956;-79
2023/08/06 04:07:26;;;;;;;;;;;;;;;15.36;100.00;100332.09;5014069;28;19924;-79
2023/08/06 04:09:55;;;;;;;;;;;;;;;15.39;100.00;100327.22;5028753;28;19921;-79
2023/08/06 04:12:20;;;;;;;;;;;;;;;15.39;100.00;100326.38;5027609;28;19925;-78
2023/08/06 04:14:45;;;;;;;;;;;;;;;15.39;100.00;100332.63;5013466;28;19994;-79
2023/08/06 04:17:10;;;;;;;;;;;;;;;15.40;100.00;100338.88;5010818;28;19985;-78
2023/08/06 04:19:36;;;;;;;;;;;;;;;15.42;100.00;100334.16;5027145;28;19929;-79
2023/08/06 04:22:01;;;;;;;;;;;;;;;15.43;100.00;100339.41;5013163;28;19966;-79
2023/08/06 04:24:26;;;;;;;;;;;;;;;15.44;100.00;100341.09;5030740;28;19982;-79
2023/08/06 04:26:51;;;;;;;;;;;;;;;15.43;100.00;100343.97;5026042;28;19955;-79
2023/08/06 04:29:16;;;;;;;;;;;;;;;15.43;100.00;100342.09;5013459;28;19966;-79
2023/08/06 04:31:42;;;;;;;;;;;;;;;15.43;100.00;100344.81;5025521;28;19997;-79
2023/08/06 04:34:09;;;;;;;;;;;;;;;15.46;100.00;100343.66;5045708;22;19928;-79
2023/08/06 04:36:34;;;;;;;;;;;;;;;15.49;100.00;100342.47;5038517;28;20020;-79
2023/08/06 04:38:59;;;;;;;;;;;;;;;15.53;100.00;100341.97;5033080;28;19917;-79
2023/08/06 04:41:24;;;;;;;;;;;;;;;15.56;100.00;100346.22;5028227;28;20105;-79
2023/08/06 04:43:49;;;;;;;;;;;;;;;15.54;100.00;100343.66;5040419;28;19927;-78
2023/08/06 04:46:15;;;;;;;;;;;;;;;15.57;100.00;100346.03;5038886;28;19935;-79
2023/08/06 04:48:40;;;;;;;;;;;;;;;15.55;100.00;100344.53;5033903;28;19925;-79
2023/08/06 04:51:05;;;;;;;;;;;;;;;15.59;100.00;100348.59;5047670;28;19924;-78
2023/08/06 04:53:30;;;;;;;;;;;;;;;15.63;100.00;100346.41;5028453;28;19920;-79
2023/08/06 04:55:55;;;;;;;;;;;;;;;15.62;100.00;100344.69;5033593;28;19928;-79
2023/08/06 04:58:21;;;;;;;;;;;;;;;15.67;100.00;100350.47;5031027;28;19964;-79
2023/08/06 05:00:46;;;;;;;;;;;;;;;15.72;100.00;100350.84;5014848;28;20007;-79
2023/08/06 05:03:11;;;;;;;;;;;;;;;15.77;100.00;100350.31;5048213;28;20039;-79
2023/08/06 05:05:36;;;;;;;;;;;;;;;15.79;100.00;100359.97;5029273;28;19952;-79
2023/08/06 05:08:01;;;;;;;;;;;;;;;15.85;100.00;100364.72;5032082;28;20020;-79
2023/08/06 05:10:27;;;;;;;;;;;;;;;15.93;100.00;100363.09;5041212;28;20342;-78
2023/08/06 05:12:52;;;;;;;;;;;;;;;16.01;100.00;100366.66;5032491;28;20365;-79
2023/08/06 05:15:18;;;;;;;;;;;;;;;15.99;100.00;100365.97;5016910;28;19921;-79
2023/08/06 05:17:43;;;;;;;;;;;;;;;16.02;100.00;100364.81;5041672;28;20426;-79
2023/08/06 05:20:08;;;;;;;;;;;;;;;16.09;100.00;100367.69;5015424;28;19928;-79
2023/08/06 05:22:34;;;;;;;;;;;;;;;16.17;100.00;100370.38;5049165;28;19991;-78
2023/08/06 05:24:59;;;;;;;;;;;;;;;16.23;100.00;100360.75;5033362;28;20522;-79
2023/08/06 05:27:24;;;;;;;;;;;;;;;16.22;100.00;100364.47;5043798;28;20020;-79
2023/08/06 05:29:49;;;;;;;;;;;;;;;16.26;100.00;100363.13;5044280;28;19932;-79
2023/08/06 05:32:14;;;;;;;;;;;;;;;16.37;100.00;100365.47;5028832;28;19932;-79
2023/08/06 05:34:41;;;;;;;;;;;;;;;16.40;100.00;100373.28;5042293;28;19967;-79
2023/08/06 05:37:06;;;;;;;;;;;;;;;16.46;100.00;100382.59;5038960;28;19928;-78
2023/08/06 05:39:31;;;;;;;;;;;;;;;16.53;100.00;100375.47;5027478;28;19960;-79
2023/08/06 05:41:57;;;;;;;;;;;;;;;16.62;100.00;100385.31;5031722;28;19971;-79
2023/08/06 05:44:23;;;;;;;;;;;;;;;16.75;100.00;100392.91;5045243;28;20015;-79
2023/08/06 05:46:48;;;;;;;;;;;;;;;16.85;100.00;100386.44;5027783;28;19921;-79
2023/08/06 05:49:13;;;;;;;;;;;;;;;16.90;100.00;100389.50;5030607;28;20945;-79
2023/08/06 05:51:39;;;;;;;;;;;;;;;16.98;100.00;100392.22;5011206;28;19924;-79
2023/08/06 05:54:04;;;;;;;;;;;;;;;16.98;100.00;100386.81;5027954;28;19960;-79
2023/08/06 05:56:29;;;;;;;;;;;;;;;16.79;100.00;100391.56;5013657;28;19920;-79
2023/08/06 05:58:54;;;;;;;;;;;;;;;16.90;100.00;100393.06;5028649;28;19960;-79
2023/08/06 06:01:20;;;;;;;;;;;;;;;16.79;100.00;100394.28;5029171;28;20016;-79
2023/08/06 06:03:45;;;;;;;;;;;;;;;16.86;100.00;100405.28;5029105;28;20402;-79
2023/08/06 06:06:10;;;;;;;;;;;;;;;17.00;100.00;100406.47;5043945;28;20255;-79
2023/08/06 06:08:35;;;;;;;;;;;;;;;17.05;100.00;100404.09;5030412;28;20021;-79
2023/08/06 06:11:00;;;;;;;;;;;;;;;17.14;100.00;100407.63;5042028;28;19956;-79
2023/08/06 06:13:26;;;;;;;;;;;;;;;17.06;100.00;100413.06;5030078;28;20008;-79
2023/08/06 06:15:53;;;;;;;;;;;;;;;17.08;100.00;100413.72;5042426;28;19959;-80
2023/08/06 06:18:19;;;;;;;;;;;;;;;17.19;100.00;100416.09;5026022;28;19936;-80
2023/08/06 06:20:44;;;;;;;;;;;;;;;17.25;100.00;100417.25;5034308;28;19921;-79
2023/08/06 06:23:09;;;;;;;;;;;;;;;17.13;100.00;100422.19;5029400;28;19967;-79
2023/08/06 06:25:34;;;;;;;;;;;;;;;17.07;100.00;100410.19;5030947;28;20043;-79
2023/08/06 06:27:59;;;;;;;;;;;;;;;17.21;100.00;100424.91;5033920;28;20393;-79
2023/08/06 06:30:25;;;;;;;;;;;;;;;17.35;100.00;100430.63;5038982;28;19954;-78
2023/08/06 06:32:50;;;;;;;;;;;;;;;17.36;100.00;100426.88;5028534;28;19927;-80
2023/08/06 06:35:15;;;;;;;;;;;;;;;17.36;100.00;100433.16;5044656;28;20043;-80
2023/08/06 06:37:40;;;;;;;;;;;;;;;17.30;100.00;100435.72;5046595;28;19976;-79
2023/08/06 06:40:06;;;;;;;;;;;;;;;17.29;100.00;100439.44;5038444;28;20014;-79
2023/08/06 06:42:31;;;;;;;;;;;;;;;17.29;100.00;100437.59;5034870;28;20011;-80
2023/08/06 06:44:56;;;;;;;;;;;;;;;17.39;100.00;100440.94;5040971;28;19921;-80
2023/08/06 06:47:21;;;;;;;;;;;;;;;17.42;100.00;100441.63;5040765;28;19928;-80
2023/08/06 06:49:47;;;;;;;;;;;;;;;17.47;100.00;100440.09;5043585;28;19925;-81
2023/08/06 06:52:12;;;;;;;;;;;;;;;17.47;100.00;100441.94;5035830;28;20199;-80
2023/08/06 06:54:37;;;;;;;;;;;;;;;17.45;100.00;100444.84;5035845;28;20128;-80
2023/08/06 06:57:03;;;;;;;;;;;;;;;17.43;100.00;100446.88;5047962;28;19948;-80
2023/08/06 06:59:28;;;;;;;;;;;;;;;17.48;100.00;100454.50;5038583;28;19921;-79
2023/08/06 07:01:53;;;;;;;;;;;;;;;17.36;100.00;100454.84;5017650;28;19917;-80
2023/08/06 07:04:18;;;;;;;;;;;;;;;17.36;100.00;100460.28;5046308;28;19925;-81
2023/08/06 07:06:44;;;;;;;;;;;;;;;17.34;100.00;100456.06;5046765;28;19920;-80
2023/08/06 07:09:09;;;;;;;;;;;;;;;17.32;100.00;100456.25;5045125;28;19936;-78
2023/08/06 07:11:34;;;;;;;;;;;;;;;17.26;100.00;100456.06;5030289;28;19925;-80
2023/08/06 07:13:59;;;;;;;;;;;;;;;17.23;100.00;100457.28;5036147;28;19913;-79
2023/08/06 07:16:25;;;;;;;;;;;;;;;17.16;100.00;100459.84;5033981;28;19920;-79
2023/08/06 07:18:53;;;;;;;;;;;;;;;17.19;100.00;100461.34;5032956;28;19921;-79
2023/08/06 07:21:18;;;;;;;;;;;;;;;17.14;100.00;100461.00;5029532;28;19921;-79
2023/08/06 07:23:44;;;;;;;;;;;;;;;17.15;100.00;100463.56;5032369;28;19932;-80
2023/08/06 07:26:09;;;;;;;;;;;;;;;17.29;100.00;100470.16;5032514;28;20268;-79
2023/08/06 07:28:34;;;;;;;;;;;;;;;17.34;100.00;100478.63;5048763;28;20012;-80
2023/08/06 07:31:00;;;;;;;;;;;;;;;17.21;100.00;100471.03;5016732;28;19924;-85
2023/08/06 07:33:25;;;;;;;;;;;;;;;17.19;100.00;100483.03;5020346;28;19936;-87
2023/08/06 07:35:50;;;;;;;;;;;;;;;17.18;100.00;100484.94;5015994;28;20411;-83
2023/08/06 07:38:15;;;;;;;;;;;;;;;17.14;100.00;100483.56;5039451;28;20397;-86
2023/08/06 07:40:40;;;;;;;;;;;;;;;17.19;100.00;100489.34;5033700;28;19975;-86
2023/08/06 07:43:06;;;;;;;;;;;;;;;17.14;100.00;100489.00;5031688;28;20011;-86
2023/08/06 07:45:35;;;;;;;;;;;;;;;17.06;100.00;100495.28;5038007;28;19920;-86
2023/08/06 07:48:00;;;;;;;;;;;;;;;16.94;100.00;100510.16;5035281;28;19921;-83
2023/08/06 07:50:25;;;;;;;;;;;;;;;16.71;100.00;100507.25;5052686;28;19925;-83
2023/08/06 07:52:50;;;;;;;;;;;;;;;16.70;100.00;100508.28;5032822;28;19927;-82
2023/08/06 07:55:16;;;;;;;;;;;;;;;16.43;100.00;100511.13;5045821;28;19975;-78
2023/08/06 07:57:41;;;;;;;;;;;;;;;16.34;100.00;100503.97;5047448;28;20399;-77
2023/08/06 08:00:06;;;;;;;;;;;;;;;16.23;100.00;100518.69;5050007;28;19943;-79
2023/08/06 08:02:32;;;;;;;;;;;;;;;16.21;100.00;100515.28;5030973;28;19932;-77
2023/08/06 08:04:57;;;;;;;;;;;;;;;16.16;100.00;100520.34;5032379;28;20381;-76
2023/08/06 08:07:22;;;;;;;;;;;;;;;16.17;100.00;100524.75;5042732;28;19972;-75
2023/08/06 08:09:48;;;;;;;;;;;;;;;16.12;100.00;100525.25;5010137;28;19924;-74
2023/08/06 08:12:13;;;;;;;;;;;;;;;16.08;100.00;100523.88;5045209;28;19920;-74
2023/08/06 08:14:38;;;;;;;;;;;;;;;16.03;100.00;100526.22;5009212;28;20086;-73
2023/08/06 08:17:05;;;;;;;;;;;;;;;15.95;100.00;100528.91;5029870;28;20379;-71
2023/08/06 08:19:30;;;;;;;;;;;;;;;15.67;100.00;100527.22;5026507;28;20090;-70
2023/08/06 08:21:55;;;;;;;;;;;;;;;15.56;100.00;100527.50;5028560;28;20025;-71
2023/08/06 08:24:23;;;;;;;;;;;;;;;15.54;100.00;100527.63;5040154;28;19984;-71
2023/08/06 08:26:48;;;;;;;;;;;;;;;15.56;100.00;100538.31;5026510;28;19925;-71
2023/08/06 08:29:14;;;;;;;;;;;;;;;15.53;100.00;100534.06;5044185;28;19933;-72
2023/08/06 08:31:39;;;;;;;;;;;;;;;15.54;100.00;100534.94;5027227;28;19920;-71
2023/08/06 08:34:05;;;;;;;;;;;;;;;15.49;100.00;100537.25;5026969;28;19929;-71
2023/08/06 08:36:30;;;;;;;;;;;;;;;15.30;100.00;100545.41;5027268;28;19921;-71
2023/08/06 08:38:55;;;;;;;;;;;;;;;15.28;100.00;100552.00;5024013;28;20004;-71
2023/08/06 08:41:21;;;;;;;;;;;;;;;15.22;100.00;100558.88;5025927;28;19974;-71
2023/08/06 08:43:46;;;;;;;;;;;;;;;14.99;100.00;100562.06;5025784;28;20003;-72
2023/08/06 08:46:11;;;;;;;;;;;;;;;14.74;100.00;100569.09;5033287;28;19982;-72
2023/08/06 08:48:36;;;;;;;;;;;;;;;14.33;100.00;100569.47;5042433;28;20982;-74
2023/08/06 08:51:02;;;;;;;;;;;;;;;14.42;100.00;100567.72;5030209;28;20004;-72
2023/08/06 08:53:28;;;;;;;;;;;;;;;14.18;100.00;100571.81;5005547;28;19925;-74
2023/08/06 08:55:53;;;;;;;;;;;;;;;14.10;100.00;100586.06;5022770;28;20284;-72
2023/08/06 08:58:18;;;;;;;;;;;;;;;14.06;100.00;100573.88;5024203;28;19917;-73
2023/08/06 09:00:44;;;;;;;;;;;;;;;13.90;100.00;100576.34;5006533;28;20039;-72
2023/08/06 09:03:09;;;;;;;;;;;;;;;13.86;100.00;100583.88;5007597;28;19928;-72
2023/08/06 09:05:35;;;;;;;;;;;;;;;13.78;100.00;100591.84;5021300;28;19948;-74
2023/08/06 09:08:02;;;;;;;;;;;;;;;13.79;100.00;100586.31;5022419;28;19929;-75
2023/08/06 09:10:27;;;;;;;;;;;;;;;13.76;100.00;100593.88;5021103;28;20145;-74
2023/08/06 09:12:53;;;;;;;;;;;;;;;13.70;100.00;100599.84;4996248;28;19921;-74
2023/08/06 09:15:19;;;;;;;;;;;;;;;13.72;100.00;100600.56;4997202;28;19929;-73
2023/08/06 09:17:44;;;;;;;;;;;;;;;13.71;100.00;100598.84;5021120;28;19925;-73
2023/08/06 09:20:12;;;;;;;;;;;;;;;13.74;100.00;100598.56;5006956;28;20679;-74
2023/08/06 09:22:38;;;;;;;;;;;;;;;13.78;100.00;100597.25;5020954;28;19925;-74
2023/08/06 09:25:06;;;;;;;;;;;;;;;13.92;100.00;100604.03;5006518;28;20390;-74
2023/08/06 09:27:31;;;;;;;;;;;;;;;13.94;100.00;100616.38;5006824;28;21842;-74
2023/08/06 09:29:56;;;;;;;;;;;;;;;13.96;100.00;100608.13;5023617;28;20436;-74
2023/08/06 09:32:21;;;;;;;;;;;;;;;14.09;100.00;100615.91;5008117;28;20375;-73
2023/08/06 09:34:46;;;;;;;;;;;;;;;14.02;100.00;100612.94;4998619;28;19929;-75
2023/08/06 09:37:12;;;;;;;;;;;;;;;14.02;100.00;100618.34;5007138;28;19940;-74
2023/08/06 09:39:38;;;;;;;;;;;;;;;14.12;100.00;100629.09;5008895;28;19925;-75
2023/08/06 09:42:04;;;;;;;;;;;;;;;14.08;100.00;100622.28;5023065;28;19917;-74
2023/08/06 09:44:30;;;;;;;;;;;;;;;14.19;100.00;100626.66;5007023;28;20455;-74
2023/08/06 09:46:56;;;;;;;;;;;;;;;14.21;100.00;100633.63;5023556;28;19928;-80
2023/08/06 09:49:27;;;;;;;;;;;;;;;14.40;100.00;100629.13;4997564;28;19932;-73
2023/08/06 09:51:55;;;;;;;;;;;;;;;14.52;100.00;100633.34;5008644;28;19960;-74
2023/08/06 09:54:20;;;;;;;;;;;;;;;14.56;100.00;100636.59;5008172;28;19925;-74
2023/08/06 09:56:46;;;;;;;;;;;;;;;14.62;100.00;100641.38;4992637;28;19932;-72
2023/08/06 09:59:11;;;;;;;;;;;;;;;14.53;100.00;100631.47;5009841;28;20449;-76
2023/08/06 10:01:37;;;;;;;;;;;;;;;14.62;100.00;100644.09;5009889;28;20216;-71
2023/08/06 10:04:07;;;;;;;;;;;;;;;14.65;100.00;100638.38;5028867;28;19928;-76
2023/08/06 10:06:36;;;;;;;;;;;;;;;14.71;100.00;100642.38;5011887;28;19913;-74
2023/08/06 10:09:01;;;;;;;;;;;;;;;14.61;100.00;100633.41;5011646;28;20015;-77
2023/08/06 10:11:26;;;;;;;;;;;;;;;14.67;100.00;100641.78;5011705;28;20024;-74
2023/08/06 10:13:54;;;;;;;;;;;;;;;14.63;100.00;100642.22;5010985;28;19969;-74
2023/08/06 10:16:19;;;;;;;;;;;;;;;14.65;100.00;100643.78;5011639;28;19921;-74
2023/08/06 10:18:44;;;;;;;;;;;;;;;14.68;100.00;100648.94;5029276;28;19932;-80
2023/08/06 10:21:09;;;;;;;;;;;;;;;14.74;100.00;100652.00;5013544;28;19979;-74
2023/08/06 10:23:37;;;;;;;;;;;;;;;14.83;100.00;100653.81;5012377;28;19968;-75
2023/08/06 10:26:02;;;;;;;;;;;;;;;14.73;100.00;100650.31;5013267;28;19917;-77
2023/08/06 10:28:36;;;;;;;;;;;;;;;14.80;100.00;100649.56;5011436;28;19925;-73
2023/08/06 10:31:01;;;;;;;;;;;;;;;14.83;100.00;100657.34;5028961;28;20458;-75
2023/08/06 10:33:30;;;;;;;;;;;;;;;14.84;100.00;100650.94;5035014;28;19921;-78
2023/08/06 10:35:55;;;;;;;;;;;;;;;14.83;100.00;100648.41;5009709;28;19945;-76
2023/08/06 10:38:21;;;;;;;;;;;;;;;14.86;100.00;100656.22;5024598;28;19975;-74
2023/08/06 10:41:00;;;;;;;;;;;;;;;14.94;100.00;100660.84;5015173;28;20023;-76
2023/08/06 10:43:32;;;;;;;;;;;;;;;14.97;100.00;100660.53;5011260;28;20509;-80
2023/08/06 10:45:58;;;;;;;;;;;;;;;15.07;100.00;100655.94;5008989;28;20498;-78
2023/08/06 10:48:33;;;;;;;;;;;;;;;14.93;100.00;100668.13;5011731;28;19921;-74
2023/08/06 10:50:59;;;;;;;;;;;;;;;15.06;100.00;100670.44;5012965;28;20093;-77
2023/08/06 10:53:24;;;;;;;;;;;;;;;14.97;100.00;100668.66;5012640;28;19922;-76
2023/08/06 10:55:49;;;;;;;;;;;;;;;14.99;100.00;100667.50;4995782;28;20333;-82
2023/08/06 10:58:15;;;;;;;;;;;;;;;15.09;100.00;100672.00;5023420;28;19936;-75
2023/08/06 11:00:40;;;;;;;;;;;;;;;15.10;100.00;100674.53;5009871;28;19921;-75
2023/08/06 11:03:05;;;;;;;;;;;;;;;15.11;100.00;100686.22;5008751;28;19964;-74
2023/08/06 11:05:30;;;;;;;;;;;;;;;15.00;100.00;100685.41;5011047;28;20015;-75
2023/08/06 11:07:56;;;;;;;;;;;;;;;15.10;100.00;100676.41;4992994;28;20448;-73
2023/08/06 11:10:21;;;;;;;;;;;;;;;15.21;100.00;100686.13;5006044;28;20460;-73
2023/08/06 11:12:46;;;;;;;;;;;;;;;15.21;100.00;100688.84;5009825;28;20526;-74
2023/08/06 11:15:11;;;;;;;;;;;;;;;15.15;100.00;100688.44;5025529;28;20340;-77
2023/08/06 11:17:37;;;;;;;;;;;;;;;15.18;100.00;100694.56;5029505;28;19957;-76
2023/08/06 11:20:03;;;;;;;;;;;;;;;15.03;100.00;100695.09;5012746;28;20030;-74
2023/08/06 11:22:28;;;;;;;;;;;;;;;15.08;100.00;100700.91;5024108;28;19924;-74
2023/08/06 11:24:53;;;;;;;;;;;;;;;15.10;100.00;100704.28;5023689;28;19928;-73
2023/08/06 11:27:19;;;;;;;;;;;;;;;15.07;100.00;100691.09;5029589;28;19978;-72
2023/08/06 11:29:44;;;;;;;;;;;;;;;15.05;100.00;100695.78;5030399;28;20039;-76
2023/08/06 11:32:09;;;;;;;;;;;;;;;14.94;100.00;100702.25;5011078;28;20007;-74
2023/08/06 11:34:35;;;;;;;;;;;;;;;15.02;100.00;100708.75;5009742;28;19929;-74
2023/08/06 11:37:00;;;;;;;;;;;;;;;15.02;100.00;100704.19;5024413;28;19931;-76
2023/08/06 11:39:25;;;;;;;;;;;;;;;14.88;100.00;100718.22;5009289;28;19931;-72
2023/08/06 11:41:51;;;;;;;;;;;;;;;14.83;100.00;100713.28;5005270;28;19921;-74
2023/08/06 11:44:19;;;;;;;;;;;;;;;14.81;100.00;100705.31;5014279;28;20039;-73
2023/08/06 11:46:52;;;;;;;;;;;;;;;15.06;100.00;100718.25;5011098;28;19917;-75
2023/08/06 11:49:21;;;;;;;;;;;;;;;15.09;100.00;100717.94;5013195;28;19936;-74
2023/08/06 11:51:46;;;;;;;;;;;;;;;15.14;100.00;100721.06;5027371;28;19928;-74
2023/08/06 11:54:11;;;;;;;;;;;;;;;15.18;100.00;100727.00;5013102;28;19921;-74
2023/08/06 11:56:36;;;;;;;;;;;;;;;15.22;100.00;100726.56;5008074;28;19925;-73
2023/08/06 11:59:01;;;;;;;;;;;;;;;15.28;100.00;100723.22;5029316;28;19958;-74
2023/08/06 12:01:27;;;;;;;;;;;;;;;15.43;100.00;100736.22;5029377;28;20039;-71
2023/08/06 12:03:52;;;;;;;;;;;;;;;15.41;100.00;100732.81;5029751;28;19925;-74
2023/08/06 12:06:17;;;;;;;;;;;;;;;15.44;100.00;100736.06;5026919;28;19921;-74
2023/08/06 12:08:43;;;;;;;;;;;;;;;15.44;100.00;100733.34;5025130;28;20043;-76
2023/08/06 12:11:08;;;;;;;;;;;;;;;15.57;100.00;100734.84;5013841;28;20085;-75
2023/08/06 12:13:34;;;;;;;;;;;;;;;15.59;100.00;100730.97;5011735;28;19921;-74
2023/08/06 12:15:59;;;;;;;;;;;;;;;15.70;100.00;100742.56;5026314;28;19920;-75
2023/08/06 12:18:24;;;;;;;;;;;;;;;15.77;100.00;100734.66;5021376;28;19921;-73
2023/08/06 12:20:50;;;;;;;;;;;;;;;15.79;100.00;100743.47;5014801;28;19966;-74